Time;durP1;ratioP1;P1;durP2;ratioP2;P2;SDS_P1;SDS_P2;PMS_P1;PMS_P2;Temp;Humidity;BMP_temperature;BMP_pressure;BME280_temperature;BME280_humidity;BME280_pressure;Samples;Min_cycle;Max_cycle;Signal;HPM_P1;HPM_P2
2023/08/05 00:01:57;;;;;;;13.57;9.85;;;;;;;;;;5049745;28;20021;-76
2023/08/05 00:04:25;;;;;;;13.27;8.85;;;;;;;;;;5049932;28;20033;-75
2023/08/05 00:06:51;;;;;;;12.50;7.75;;;;;;;;;;5042636;28;20018;-76
2023/08/05 00:09:20;;;;;;;13.02;8.57;;;;;;;;;;5049107;28;20014;-76
2023/08/05 00:11:45;;;;;;;13.15;7.65;;;;;;;;;;5046522;28;20013;-76
2023/08/05 00:14:11;;;;;;;9.50;7.28;;;;;;;;;;5046490;28;20040;-76
2023/08/05 00:16:37;;;;;;;12.90;7.72;;;;;;;;;;5049061;28;20101;-76
2023/08/05 00:19:06;;;;;;;22.38;8.73;;;;;;;;;;5047926;28;20037;-76
2023/08/05 00:21:32;;;;;;;17.40;8.48;;;;;;;;;;5047142;28;20025;-76
2023/08/05 00:23:58;;;;;;;12.38;9.00;;;;;;;;;;5045619;28;20017;-76
2023/08/05 00:26:24;;;;;;;17.13;10.18;;;;;;;;;;5047900;28;20022;-76
2023/08/05 00:28:50;;;;;;;16.45;9.68;;;;;;;;;;5047965;28;20034;-76
2023/08/05 00:31:16;;;;;;;15.85;9.10;;;;;;;;;;5043651;28;20013;-75
2023/08/05 00:33:42;;;;;;;13.13;8.55;;;;;;;;;;5044293;28;20109;-76
2023/08/05 00:36:08;;;;;;;10.82;7.93;;;;;;;;;;5044098;28;20056;-75
2023/08/05 00:38:36;;;;;;;13.98;7.43;;;;;;;;;;5048257;28;20014;-76
2023/08/05 00:41:03;;;;;;;14.95;7.40;;;;;;;;;;5047171;28;20067;-76
2023/08/05 00:43:29;;;;;;;10.10;6.57;;;;;;;;;;5043882;28;20341;-75
2023/08/05 00:45:56;;;;;;;10.20;6.63;;;;;;;;;;5044605;28;20037;-76
2023/08/05 00:48:25;;;;;;;19.73;7.63;;;;;;;;;;5065725;28;20045;-77
2023/08/05 00:50:51;;;;;;;14.02;8.40;;;;;;;;;;5052242;28;20034;-75
2023/08/05 00:53:17;;;;;;;11.48;7.30;;;;;;;;;;5047933;28;20115;-76
2023/08/05 00:55:43;;;;;;;11.85;7.88;;;;;;;;;;5049303;28;20045;-76
2023/08/05 00:58:11;;;;;;;13.75;6.78;;;;;;;;;;5046312;28;20056;-75
2023/08/05 01:00:37;;;;;;;13.90;7.05;;;;;;;;;;5050334;28;20022;-76
2023/08/05 01:03:03;;;;;;;9.25;6.72;;;;;;;;;;5067321;28;20025;-76
2023/08/05 01:05:29;;;;;;;12.48;7.20;;;;;;;;;;5047182;28;20053;-76
2023/08/05 01:07:55;;;;;;;16.02;9.88;;;;;;;;;;5047434;28;20051;-76
2023/08/05 01:10:21;;;;;;;11.45;8.85;;;;;;;;;;5047269;28;20079;-76
2023/08/05 01:12:47;;;;;;;12.77;7.72;;;;;;;;;;5046367;28;20033;-76
2023/08/05 01:15:13;;;;;;;8.57;5.50;;;;;;;;;;5047737;28;20052;-76
2023/08/05 01:17:40;;;;;;;8.98;5.20;;;;;;;;;;5046261;28;20022;-76
2023/08/05 01:20:08;;;;;;;8.43;6.53;;;;;;;;;;5046356;28;20052;-76
2023/08/05 01:22:41;;;;;;;10.07;6.30;;;;;;;;;;5049862;28;20031;-76
2023/08/05 01:25:09;;;;;;;;;;;;;;;;;;5052966;28;20047;-76
2023/08/05 01:27:38;;;;;;;12.73;6.45;;;;;;;;;;5051892;28;19908;-76
2023/08/05 01:30:10;;;;;;;8.30;6.28;;;;;;;;;;5047117;28;20021;-75
2023/08/05 01:32:36;;;;;;;11.38;7.57;;;;;;;;;;5049525;28;20044;-75
2023/08/05 01:35:02;;;;;;;10.98;7.00;;;;;;;;;;5049069;28;20107;-76
2023/08/05 01:37:28;;;;;;;10.75;7.35;;;;;;;;;;5045600;28;20017;-76
2023/08/05 01:39:54;;;;;;;10.48;6.75;;;;;;;;;;5048623;28;20029;-76
2023/08/05 01:42:26;;;;;;;11.65;7.47;;;;;;;;;;5047448;28;20017;-76
2023/08/05 01:44:52;;;;;;;7.53;6.18;;;;;;;;;;5067595;28;20018;-76
2023/08/05 01:47:18;;;;;;;10.65;5.85;;;;;;;;;;5046909;28;20022;-76
2023/08/05 01:49:45;;;;;;;10.75;6.13;;;;;;;;;;5050936;28;20064;-76
2023/08/05 01:52:11;;;;;;;10.68;6.78;;;;;;;;;;5051037;28;20056;-76
2023/08/05 01:54:37;;;;;;;10.85;7.20;;;;;;;;;;5047777;28;20025;-76
2023/08/05 01:57:05;;;;;;;9.35;7.20;;;;;;;;;;5050389;28;20036;-76
2023/08/05 01:59:31;;;;;;;10.10;6.45;;;;;;;;;;5046112;28;20017;-76
2023/08/05 02:01:57;;;;;;;11.77;6.25;;;;;;;;;;5050620;28;21165;-75
2023/08/05 02:04:23;;;;;;;8.05;6.40;;;;;;;;;;5048411;28;20033;-76
2023/08/05 02:06:49;;;;;;;12.68;7.50;;;;;;;;;;5045282;28;20116;-76
2023/08/05 02:09:15;;;;;;;10.50;7.28;;;;;;;;;;5067138;28;20025;-76
2023/08/05 02:11:41;;;;;;;13.90;7.90;;;;;;;;;;5046647;28;20022;-76
2023/08/05 02:14:07;;;;;;;7.22;6.00;;;;;;;;;;5067063;28;20029;-75
2023/08/05 02:16:34;;;;;;;10.55;6.20;;;;;;;;;;5045724;28;20152;-75
2023/08/05 02:19:02;;;;;;;9.40;6.18;;;;;;;;;;5049120;28;20053;-75
2023/08/05 02:21:28;;;;;;;7.10;6.00;;;;;;;;;;5048743;28;20305;-76
2023/08/05 02:23:54;;;;;;;9.68;4.97;;;;;;;;;;5047426;28;20040;-75
2023/08/05 02:26:20;;;;;;;9.63;5.60;;;;;;;;;;5046959;28;20048;-75
2023/08/05 02:28:49;;;;;;;8.05;5.18;;;;;;;;;;5047492;28;20033;-76
2023/08/05 02:31:15;;;;;;;9.77;6.22;;;;;;;;;;5066070;28;20018;-76
2023/08/05 02:33:42;;;;;;;10.40;6.10;;;;;;;;;;5047692;28;20047;-76
2023/08/05 02:36:11;;;;;;;11.35;5.97;;;;;;;;;;5064402;28;20107;-76
2023/08/05 02:38:37;;;;;;;7.95;5.25;;;;;;;;;;5047350;28;20029;-75
2023/08/05 02:41:07;;;;;;;8.35;5.93;;;;;;;;;;5050171;28;20033;-75
2023/08/05 02:43:36;;;;;;;10.00;6.10;;;;;;;;;;5065704;28;20106;-75
2023/08/05 02:46:02;;;;;;;8.93;6.03;;;;;;;;;;5045894;28;20085;-76
2023/08/05 02:48:30;;;;;;;7.82;5.63;;;;;;;;;;5046540;28;20048;-76
2023/08/05 02:50:57;;;;;;;10.63;5.35;;;;;;;;;;5050144;28;20018;-76
2023/08/05 02:53:23;;;;;;;10.70;6.00;;;;;;;;;;5048534;28;20030;-75
2023/08/05 02:55:49;;;;;;;9.48;5.28;;;;;;;;;;5050365;28;20037;-76
2023/08/05 02:58:15;;;;;;;9.80;5.38;;;;;;;;;;5048315;28;20025;-76
2023/08/05 03:00:42;;;;;;;9.77;5.35;;;;;;;;;;5045418;28;20477;-76
2023/08/05 03:03:10;;;;;;;22.25;7.13;;;;;;;;;;5043994;28;20037;-75
2023/08/05 03:05:36;;;;;;;8.75;6.25;;;;;;;;;;5045282;28;20022;-76
2023/08/05 03:08:03;;;;;;;9.23;6.18;;;;;;;;;;5047537;28;20101;-75
2023/08/05 03:10:29;;;;;;;10.80;5.82;;;;;;;;;;5044433;28;20048;-75
2023/08/05 03:12:55;;;;;;;10.27;6.43;;;;;;;;;;5044592;28;20029;-76
2023/08/05 03:15:21;;;;;;;10.30;7.25;;;;;;;;;;5045105;28;20033;-76
2023/08/05 03:17:49;;;;;;;19.65;7.72;;;;;;;;;;5044645;28;20136;-75
2023/08/05 03:20:26;;;;;;;9.55;6.65;;;;;;;;;;5049517;28;20017;-76
2023/08/05 03:22:53;;;;;;;11.00;6.50;;;;;;;;;;5049968;28;20029;-75
2023/08/05 03:25:19;;;;;;;11.35;6.57;;;;;;;;;;5050151;28;20022;-75
2023/08/05 03:27:48;;;;;;;14.00;7.88;;;;;;;;;;5047056;28;20029;-76
2023/08/05 03:30:14;;;;;;;10.98;7.13;;;;;;;;;;5047722;28;20025;-76
2023/08/05 03:32:42;;;;;;;15.20;7.70;;;;;;;;;;5049423;28;20049;-74
2023/08/05 03:35:09;;;;;;;9.63;6.88;;;;;;;;;;5048837;28;20406;-75
2023/08/05 03:37:35;;;;;;;11.85;6.55;;;;;;;;;;5045213;28;20025;-75
2023/08/05 03:40:01;;;;;;;12.57;7.63;;;;;;;;;;5046690;28;20029;-75
2023/08/05 03:42:27;;;;;;;11.63;6.97;;;;;;;;;;5047226;28;20044;-75
2023/08/05 03:44:53;;;;;;;10.50;6.70;;;;;;;;;;5051979;28;20085;-76
2023/08/05 03:47:20;;;;;;;15.45;7.28;;;;;;;;;;5047117;28;20106;-75
2023/08/05 03:49:48;;;;;;;14.57;6.45;;;;;;;;;;5045520;28;20029;-75
2023/08/05 03:52:15;;;;;;;11.05;6.03;;;;;;;;;;5048642;28;20037;-76
2023/08/05 03:54:41;;;;;;;11.43;7.70;;;;;;;;;;5046265;28;20029;-76
2023/08/05 03:57:09;;;;;;;10.55;6.18;;;;;;;;;;5047971;28;20026;-77
2023/08/05 03:59:40;;;;;;;10.60;6.97;;;;;;;;;;5045081;28;20018;-75
2023/08/05 04:02:07;;;;;;;14.93;7.50;;;;;;;;;;5049335;28;20021;-75
2023/08/05 04:04:33;;;;;;;9.32;6.90;;;;;;;;;;5044348;28;20057;-76
2023/08/05 04:06:59;;;;;;;11.30;6.60;;;;;;;;;;5046686;28;20029;-76
2023/08/05 04:09:25;;;;;;;10.57;7.30;;;;;;;;;;5048688;28;20021;-74
2023/08/05 04:11:53;;;;;;;10.50;6.85;;;;;;;;;;5044780;28;20030;-75
2023/08/05 04:14:20;;;;;;;13.30;7.22;;;;;;;;;;5045735;28;20010;-75
2023/08/05 04:16:51;;;;;;;8.63;6.72;;;;;;;;;;5044684;28;20045;-77
2023/08/05 04:19:20;;;;;;;10.70;7.07;;;;;;;;;;5046577;28;20025;-76
2023/08/05 04:21:47;;;;;;;10.17;6.67;;;;;;;;;;5048918;28;20040;-75
2023/08/05 04:24:14;;;;;;;13.97;6.93;;;;;;;;;;5051963;28;20022;-76
2023/08/05 04:26:40;;;;;;;8.13;6.28;;;;;;;;;;5050126;28;20022;-75
2023/08/05 04:29:06;;;;;;;14.48;6.30;;;;;;;;;;5052324;28;20037;-75
2023/08/05 04:31:33;;;;;;;14.18;8.55;;;;;;;;;;5052469;28;20045;-76
2023/08/05 04:34:01;;;;;;;12.95;7.53;;;;;;;;;;5047092;28;20010;-75
2023/08/05 04:36:30;;;;;;;11.27;7.00;;;;;;;;;;5052694;28;20041;-76
2023/08/05 04:38:59;;;;;;;11.00;8.32;;;;;;;;;;5069460;28;20028;-75
2023/08/05 04:41:25;;;;;;;12.05;7.03;;;;;;;;;;5048155;28;20047;-75
2023/08/05 04:43:51;;;;;;;14.52;7.38;;;;;;;;;;5050828;28;20053;-75
2023/08/05 04:46:17;;;;;;;13.15;10.10;;;;;;;;;;5051554;28;20017;-76
2023/08/05 04:48:45;;;;;;;13.85;8.32;;;;;;;;;;5048994;28;20029;-75
2023/08/05 04:51:11;;;;;;;16.15;8.75;;;;;;;;;;5047321;28;20024;-75
2023/08/05 04:53:39;;;;;;;13.77;9.23;;;;;;;;;;5050827;28;20029;-76
2023/08/05 04:56:05;;;;;;;15.55;7.15;;;;;;;;;;5048325;28;20115;-76
2023/08/05 04:58:31;;;;;;;11.57;7.20;;;;;;;;;;5048364;28;20045;-75
2023/08/05 05:00:58;;;;;;;10.70;7.28;;;;;;;;;;5048344;28;20225;-75
2023/08/05 05:03:25;;;;;;;14.27;7.25;;;;;;;;;;5050707;28;20096;-75
2023/08/05 05:05:51;;;;;;;9.63;5.93;;;;;;;;;;5047903;28;20013;-75
2023/08/05 05:08:17;;;;;;;13.73;8.20;;;;;;;;;;5054458;28;20028;-76
2023/08/05 05:10:46;;;;;;;17.35;8.80;;;;;;;;;;5047152;28;20021;-76
2023/08/05 05:13:12;;;;;;;8.93;7.00;;;;;;;;;;5046942;28;20085;-76
2023/08/05 05:15:38;;;;;;;8.93;7.32;;;;;;;;;;5052593;28;20238;-75
2023/08/05 05:18:04;;;;;;;15.48;6.97;;;;;;;;;;5052317;28;20093;-74
2023/08/05 05:20:30;;;;;;;13.73;7.70;;;;;;;;;;5051798;28;20127;-74
2023/08/05 05:22:56;;;;;;;10.70;6.85;;;;;;;;;;5046382;28;20017;-76
2023/08/05 05:25:23;;;;;;;12.68;6.53;;;;;;;;;;5045855;28;20210;-75
2023/08/05 05:27:49;;;;;;;13.02;8.20;;;;;;;;;;5049287;28;20022;-75
2023/08/05 05:30:15;;;;;;;11.32;7.22;;;;;;;;;;5049457;28;20049;-75
2023/08/05 05:32:41;;;;;;;10.93;7.32;;;;;;;;;;5046725;28;20022;-76
2023/08/05 05:35:10;;;;;;;8.80;7.30;;;;;;;;;;5068157;28;20096;-76
2023/08/05 05:37:36;;;;;;;10.90;7.00;;;;;;;;;;5049578;28;20018;-75
2023/08/05 05:40:02;;;;;;;12.82;7.95;;;;;;;;;;5045697;28;20044;-76
2023/08/05 05:42:29;;;;;;;12.13;7.75;;;;;;;;;;5049931;28;20021;-75
2023/08/05 05:44:55;;;;;;;14.10;8.32;;;;;;;;;;5046638;28;20049;-75
2023/08/05 05:47:21;;;;;;;10.93;7.32;;;;;;;;;;5045616;28;20040;-76
2023/08/05 05:49:47;;;;;;;10.43;7.40;;;;;;;;;;5064256;28;20021;-76
2023/08/05 05:52:16;;;;;;;10.00;7.35;;;;;;;;;;5067488;28;20028;-76
2023/08/05 05:54:46;;;;;;;12.15;7.32;;;;;;;;;;5046536;28;20033;-74
2023/08/05 05:57:12;;;;;;;12.55;8.02;;;;;;;;;;5046776;28;20090;-76
2023/08/05 05:59:39;;;;;;;13.95;7.38;;;;;;;;;;5049771;28;20013;-76
2023/08/05 06:02:08;;;;;;;12.75;7.95;;;;;;;;;;5044980;28;20017;-76
2023/08/05 06:04:34;;;;;;;14.20;8.55;;;;;;;;;;5054522;28;20022;-75
2023/08/05 06:07:01;;;;;;;18.15;9.50;;;;;;;;;;5050949;28;20037;-76
2023/08/05 06:09:27;;;;;;;11.90;7.40;;;;;;;;;;5046447;28;20128;-76
2023/08/05 06:11:54;;;;;;;21.35;12.32;;;;;;;;;;5049634;28;20019;-75
2023/08/05 06:14:21;;;;;;;11.38;7.80;;;;;;;;;;5045333;28;20060;-75
2023/08/05 06:16:49;;;;;;;15.98;8.13;;;;;;;;;;5065770;28;20025;-76
2023/08/05 06:19:15;;;;;;;13.20;8.40;;;;;;;;;;5045859;28;20021;-75
2023/08/05 06:21:41;;;;;;;22.48;8.68;;;;;;;;;;5049754;28;20047;-75
2023/08/05 06:24:07;;;;;;;17.17;8.50;;;;;;;;;;5054678;28;20024;-75
2023/08/05 06:26:33;;;;;;;13.70;9.18;;;;;;;;;;5045360;28;20144;-76
2023/08/05 06:28:59;;;;;;;13.70;9.05;;;;;;;;;;5049953;28;20045;-76
2023/08/05 06:31:25;;;;;;;13.43;9.15;;;;;;;;;;5044618;28;20025;-75
2023/08/05 06:33:51;;;;;;;11.18;8.10;;;;;;;;;;5046177;28;20025;-76
2023/08/05 06:36:19;;;;;;;14.60;9.05;;;;;;;;;;5047031;28;20033;-76
2023/08/05 06:38:48;;;;;;;16.10;9.57;;;;;;;;;;5046951;28;20018;-76
2023/08/05 06:41:14;;;;;;;13.82;9.60;;;;;;;;;;5047441;28;20025;-77
2023/08/05 06:43:42;;;;;;;14.38;10.43;;;;;;;;;;5048759;28;20041;-76
2023/08/05 06:46:08;;;;;;;17.65;10.77;;;;;;;;;;5045449;28;20026;-76
2023/08/05 06:48:34;;;;;;;20.02;12.18;;;;;;;;;;5066895;28;20037;-76
2023/08/05 06:51:00;;;;;;;16.38;11.40;;;;;;;;;;5050527;28;20106;-76
2023/08/05 06:53:26;;;;;;;18.83;10.93;;;;;;;;;;5050506;28;20025;-75
2023/08/05 06:56:02;;;;;;;18.95;11.18;;;;;;;;;;5046912;28;20026;-76
2023/08/05 06:58:28;;;;;;;14.02;9.93;;;;;;;;;;5046022;28;20056;-76
2023/08/05 07:00:54;;;;;;;14.45;10.02;;;;;;;;;;5051281;28;20029;-76
2023/08/05 07:03:20;;;;;;;17.98;9.80;;;;;;;;;;5050015;28;20097;-76
2023/08/05 07:05:48;;;;;;;11.85;8.93;;;;;;;;;;5048431;28;20018;-76
2023/08/05 07:08:14;;;;;;;17.13;9.10;;;;;;;;;;5049774;28;20045;-76
2023/08/05 07:10:40;;;;;;;13.10;9.80;;;;;;;;;;5045658;28;20041;-76
2023/08/05 07:13:07;;;;;;;12.80;8.73;;;;;;;;;;5044948;28;20030;-76
2023/08/05 07:15:36;;;;;;;11.60;8.27;;;;;;;;;;5045591;28;20025;-76
2023/08/05 07:18:04;;;;;;;15.00;9.07;;;;;;;;;;5047650;28;20013;-77
2023/08/05 07:20:32;;;;;;;15.55;9.55;;;;;;;;;;5066645;28;20104;-76
2023/08/05 07:22:59;;;;;;;15.70;8.32;;;;;;;;;;5048806;28;20009;-76
2023/08/05 07:25:27;;;;;;;16.15;8.52;;;;;;;;;;5050164;28;20010;-76
2023/08/05 07:27:53;;;;;;;12.20;8.32;;;;;;;;;;5068349;28;20013;-76
2023/08/05 07:30:19;;;;;;;14.32;8.10;;;;;;;;;;5043987;28;20018;-76
2023/08/05 07:32:45;;;;;;;15.93;8.43;;;;;;;;;;5046060;28;20055;-76
2023/08/05 07:35:12;;;;;;;14.27;8.63;;;;;;;;;;5056860;28;20033;-77
2023/08/05 07:37:44;;;;;;;14.10;7.65;;;;;;;;;;5047555;28;20033;-76
2023/08/05 07:40:13;;;;;;;13.27;8.80;;;;;;;;;;5067579;28;20084;-76
2023/08/05 07:42:40;;;;;;;11.25;7.78;;;;;;;;;;5066979;28;20022;-76
2023/08/05 07:45:11;;;;;;;13.23;8.05;;;;;;;;;;5045843;28;20038;-77
2023/08/05 07:47:40;;;;;;;15.43;8.10;;;;;;;;;;5047345;28;20081;-78
2023/08/05 07:50:07;;;;;;;9.55;7.47;;;;;;;;;;5038551;28;20021;-77
2023/08/05 07:52:33;;;;;;;11.85;7.18;;;;;;;;;;5040766;28;20101;-79
2023/08/05 07:54:59;;;;;;;11.40;6.18;;;;;;;;;;5044970;28;20044;-77
2023/08/05 07:57:25;;;;;;;10.18;6.45;;;;;;;;;;5045399;28;20033;-79
2023/08/05 07:59:52;;;;;;;11.32;6.65;;;;;;;;;;5046678;28;20033;-79
2023/08/05 08:02:18;;;;;;;12.35;6.57;;;;;;;;;;5055021;28;20030;-80
2023/08/05 08:04:44;;;;;;;13.57;6.53;;;;;;;;;;5031271;28;20029;-80
2023/08/05 08:07:11;;;;;;;9.02;6.28;;;;;;;;;;5034092;28;20152;-83
2023/08/05 08:09:37;;;;;;;7.88;5.15;;;;;;;;;;5050608;28;20030;-81
2023/08/05 08:12:03;;;;;;;7.40;4.50;;;;;;;;;;5031615;28;20069;-83
2023/08/05 08:14:29;;;;;;;12.02;6.82;;;;;;;;;;5037335;28;20025;-84
2023/08/05 08:16:55;;;;;;;6.40;5.03;;;;;;;;;;5031797;28;20029;-84
2023/08/05 08:19:22;;;;;;;11.60;5.70;;;;;;;;;;5033744;28;20069;-83
2023/08/05 08:21:48;;;;;;;8.68;5.30;;;;;;;;;;5049909;28;20043;-84
2023/08/05 08:24:14;;;;;;;8.65;4.80;;;;;;;;;;5039892;28;20026;-83
2023/08/05 08:26:40;;;;;;;8.93;5.10;;;;;;;;;;5033277;28;20052;-82
2023/08/05 08:29:06;;;;;;;10.25;4.78;;;;;;;;;;5035537;28;20076;-83
2023/08/05 08:31:33;;;;;;;7.38;5.03;;;;;;;;;;5035750;28;20908;-85
2023/08/05 08:33:59;;;;;;;6.70;5.03;;;;;;;;;;5031507;28;20040;-85
2023/08/05 08:36:25;;;;;;;8.27;4.85;;;;;;;;;;5048604;28;20056;-85
2023/08/05 08:38:52;;;;;;;7.18;4.65;;;;;;;;;;5029508;28;20111;-85
2023/08/05 08:41:18;;;;;;;7.30;4.70;;;;;;;;;;5033426;28;20038;-85
2023/08/05 08:43:47;;;;;;;9.05;4.88;;;;;;;;;;5032470;28;20083;-84
2023/08/05 08:46:14;;;;;;;8.02;4.45;;;;;;;;;;5029635;28;20111;-85
2023/08/05 08:48:40;;;;;;;4.50;3.88;;;;;;;;;;5031441;28;20038;-83
2023/08/05 08:51:08;;;;;;;6.68;4.07;;;;;;;;;;5031424;28;20036;-86
2023/08/05 08:53:34;;;;;;;4.95;3.80;;;;;;;;;;5029267;28;20029;-83
2023/08/05 08:56:01;;;;;;;8.32;3.58;;;;;;;;;;5029226;28;20133;-84
2023/08/05 08:58:27;;;;;;;5.43;4.43;;;;;;;;;;5028117;28;20029;-85
2023/08/05 09:00:53;;;;;;;5.05;3.75;;;;;;;;;;5032174;28;20047;-85
2023/08/05 09:03:19;;;;;;;5.90;3.50;;;;;;;;;;5030282;28;20029;-84
2023/08/05 09:05:46;;;;;;;7.63;3.90;;;;;;;;;;5032010;28;20045;-83
2023/08/05 09:08:15;;;;;;;6.18;3.72;;;;;;;;;;5024644;28;20365;-84
2023/08/05 09:10:43;;;;;;;8.45;3.55;;;;;;;;;;5024208;28;20033;-85
2023/08/05 09:13:09;;;;;;;6.47;3.97;;;;;;;;;;5029889;28;20036;-85
2023/08/05 09:15:39;;;;;;;5.97;4.00;;;;;;;;;;5048836;28;20366;-85
2023/08/05 09:18:07;;;;;;;10.27;3.90;;;;;;;;;;5032644;28;20122;-83
2023/08/05 09:20:34;;;;;;;6.75;3.72;;;;;;;;;;5026269;28;20075;-82
2023/08/05 09:23:02;;;;;;;6.60;3.25;;;;;;;;;;5029181;28;20030;-84
2023/08/05 09:25:31;;;;;;;8.10;3.70;;;;;;;;;;5029192;28;20092;-83
2023/08/05 09:27:59;;;;;;;2.97;2.67;;;;;;;;;;5025180;28;20113;-84
2023/08/05 09:30:26;;;;;;;7.38;3.50;;;;;;;;;;5028468;28;20030;-81
2023/08/05 09:32:55;;;;;;;4.88;3.58;;;;;;;;;;5030830;28;20111;-83
2023/08/05 09:35:21;;;;;;;5.22;3.65;;;;;;;;;;5030124;28;20037;-85
2023/08/05 09:37:48;;;;;;;8.68;2.60;;;;;;;;;;5028537;28;20025;-84
2023/08/05 09:40:16;;;;;;;3.22;2.45;;;;;;;;;;5031537;28;20116;-84
2023/08/05 09:42:43;;;;;;;6.00;2.53;;;;;;;;;;5031986;28;20048;-84
2023/08/05 09:45:12;;;;;;;4.60;2.40;;;;;;;;;;5029072;28;20097;-84
2023/08/05 09:47:38;;;;;;;2.13;1.92;;;;;;;;;;5030711;28;20022;-83
2023/08/05 09:50:08;;;;;;;7.90;1.92;;;;;;;;;;5029498;28;20048;-82
2023/08/05 09:52:34;;;;;;;3.65;2.00;;;;;;;;;;5027871;28;20410;-83
2023/08/05 09:55:01;;;;;;;5.63;2.60;;;;;;;;;;5034759;28;20125;-84
2023/08/05 09:57:30;;;;;;;3.83;2.88;;;;;;;;;;5031853;28;20084;-84
2023/08/05 10:00:07;;;;;;;4.65;2.33;;;;;;;;;;5025973;28;20029;-83
2023/08/05 10:02:33;;;;;;;4.10;2.47;;;;;;;;;;5047124;28;20025;-84
2023/08/05 10:05:02;;;;;;;9.35;2.90;;;;;;;;;;5030336;28;20551;-82
2023/08/05 10:07:28;;;;;;;5.03;3.08;;;;;;;;;;5032064;28;20022;-84
2023/08/05 10:09:57;;;;;;;6.55;3.08;;;;;;;;;;5025893;28;20018;-83
2023/08/05 10:12:27;;;;;;;4.95;2.35;;;;;;;;;;5031834;28;20454;-84
2023/08/05 10:14:56;;;;;;;3.28;1.80;;;;;;;;;;5025270;28;20526;-84
2023/08/05 10:17:22;;;;;;;4.25;2.05;;;;;;;;;;5028146;28;20183;-84
2023/08/05 10:19:53;;;;;;;6.05;1.88;;;;;;;;;;5027593;28;20030;-84
2023/08/05 10:22:23;;;;;;;3.00;1.48;;;;;;;;;;5046591;28;20025;-81
2023/08/05 10:24:50;;;;;;;2.40;1.80;;;;;;;;;;5023500;28;20442;-83
2023/08/05 10:27:16;;;;;;;3.42;1.83;;;;;;;;;;5026353;28;20037;-83
2023/08/05 10:29:52;;;;;;;4.05;2.00;;;;;;;;;;5024654;28;20453;-83
2023/08/05 10:32:27;;;;;;;4.55;2.22;;;;;;;;;;5027208;28;20018;-82
2023/08/05 10:35:32;;;;;;;3.88;1.80;;;;;;;;;;5048107;28;20086;-83
2023/08/05 10:38:07;;;;;;;3.67;1.88;;;;;;;;;;4954991;28;20031;-84
2023/08/05 10:40:37;;;;;;;5.55;1.73;;;;;;;;;;4971142;28;20019;-84
2023/08/05 10:43:03;;;;;;;3.28;1.77;;;;;;;;;;4971441;28;20109;-83
2023/08/05 10:45:29;;;;;;;2.30;1.48;;;;;;;;;;4970321;28;20055;-83
2023/08/05 10:47:55;;;;;;;2.65;1.92;;;;;;;;;;4954755;28;20069;-83
2023/08/05 10:50:23;;;;;;;2.05;1.80;;;;;;;;;;4954731;28;20080;-83
2023/08/05 10:52:50;;;;;;;2.78;1.55;;;;;;;;;;4959323;28;20462;-84
2023/08/05 10:55:16;;;;;;;3.05;1.15;;;;;;;;;;4955126;28;20479;-83
2023/08/05 10:57:42;;;;;;;2.45;1.20;;;;;;;;;;4970770;28;20065;-83
2023/08/05 11:00:17;;;;;;;2.88;1.10;;;;;;;;;;4971100;28;20482;-82
2023/08/05 11:02:43;;;;;;;3.35;1.25;;;;;;;;;;4954742;28;20038;-83
2023/08/05 11:05:09;;;;;;;2.95;1.35;;;;;;;;;;4954112;28;20031;-83
2023/08/05 11:07:44;;;;;;;4.85;1.40;;;;;;;;;;4971838;28;20444;-82
2023/08/05 11:10:13;;;;;;;3.25;1.20;;;;;;;;;;5025589;28;20120;-82
2023/08/05 11:12:42;;;;;;;1.20;0.95;;;;;;;;;;5025788;28;20025;-82
2023/08/05 11:15:09;;;;;;;3.70;1.13;;;;;;;;;;5030596;28;20099;-82
2023/08/05 11:17:53;;;;;;;2.67;0.85;;;;;;;;;;5023482;28;20031;-83
2023/08/05 11:20:19;;;;;;;3.75;1.20;;;;;;;;;;5032102;28;20454;-83
2023/08/05 11:22:47;;;;;;;3.95;0.95;;;;;;;;;;5031922;28;20021;-83
2023/08/05 11:25:18;;;;;;;2.42;1.25;;;;;;;;;;5046234;28;20064;-83
2023/08/05 11:27:49;;;;;;;2.08;1.02;;;;;;;;;;5045610;28;20044;-83
2023/08/05 11:30:16;;;;;;;1.70;1.10;;;;;;;;;;5031086;28;20051;-82
2023/08/05 11:32:49;;;;;;;1.58;1.20;;;;;;;;;;5023822;28;20384;-82
2023/08/05 11:35:15;;;;;;;4.82;1.40;;;;;;;;;;5027405;28;20033;-83
2023/08/05 11:37:41;;;;;;;1.08;0.70;;;;;;;;;;5026866;28;20026;-83
2023/08/05 11:40:07;;;;;;;1.55;1.08;;;;;;;;;;5029832;28;20037;-81
2023/08/05 11:42:33;;;;;;;3.05;1.10;;;;;;;;;;5022607;28;20034;-83
2023/08/05 11:44:59;;;;;;;3.28;1.25;;;;;;;;;;5026658;28;20035;-83
2023/08/05 11:47:26;;;;;;;1.13;0.93;;;;;;;;;;5027678;28;20435;-82
2023/08/05 11:49:53;;;;;;;1.95;0.82;;;;;;;;;;5031609;28;20029;-82
2023/08/05 11:52:19;;;;;;;4.45;1.38;;;;;;;;;;5028485;28;20021;-82
2023/08/05 11:54:55;;;;;;;1.52;0.80;;;;;;;;;;5022835;28;20025;-83
2023/08/05 11:57:21;;;;;;;2.65;0.95;;;;;;;;;;5027168;28;20698;-81
2023/08/05 11:59:51;;;;;;;2.13;1.00;;;;;;;;;;5024778;28;20029;-83
2023/08/05 12:02:17;;;;;;;1.67;0.80;;;;;;;;;;5024035;28;20445;-82
2023/08/05 12:04:50;;;;;;;1.50;0.80;;;;;;;;;;5026366;28;20927;-81
2023/08/05 12:07:19;;;;;;;1.20;0.63;;;;;;;;;;5028213;28;20781;-83
2023/08/05 12:09:45;;;;;;;1.88;1.10;;;;;;;;;;5025534;28;20029;-82
2023/08/05 12:12:16;;;;;;;2.58;1.52;;;;;;;;;;5025024;28;20113;-82
2023/08/05 12:14:42;;;;;;;3.03;1.55;;;;;;;;;;5026054;28;20104;-83
2023/08/05 12:17:10;;;;;;;1.42;0.95;;;;;;;;;;5026449;28;20120;-83
2023/08/05 12:19:36;;;;;;;1.23;0.90;;;;;;;;;;5025452;28;20021;-84
2023/08/05 12:22:02;;;;;;;5.10;1.60;;;;;;;;;;5028940;28;20591;-83
2023/08/05 12:24:28;;;;;;;2.88;0.80;;;;;;;;;;5021917;28;20121;-81
2023/08/05 12:26:56;;;;;;;2.13;1.00;;;;;;;;;;5025740;28;20104;-83
2023/08/05 12:29:22;;;;;;;4.63;1.13;;;;;;;;;;5026374;28;20075;-84
2023/08/05 12:31:48;;;;;;;2.00;1.40;;;;;;;;;;5021810;28;20030;-82
2023/08/05 12:34:17;;;;;;;1.45;0.88;;;;;;;;;;5026391;28;20052;-82
2023/08/05 12:36:43;;;;;;;1.10;0.90;;;;;;;;;;5045434;28;20026;-83
2023/08/05 12:39:09;;;;;;;1.23;1.00;;;;;;;;;;5032673;28;20087;-83
2023/08/05 12:41:35;;;;;;;1.88;0.93;;;;;;;;;;5027363;28;20025;-84
2023/08/05 12:44:01;;;;;;;3.53;1.55;;;;;;;;;;5033811;28;20488;-82
2023/08/05 12:46:27;;;;;;;4.00;1.80;;;;;;;;;;5033843;28;20045;-83
2023/08/05 12:48:53;;;;;;;4.75;2.40;;;;;;;;;;5035127;28;20432;-84
2023/08/05 12:51:19;;;;;;;3.53;1.70;;;;;;;;;;5032447;28;20033;-84
2023/08/05 12:53:45;;;;;;;3.33;2.08;;;;;;;;;;5030313;28;20159;-85
2023/08/05 12:56:11;;;;;;;4.05;3.15;;;;;;;;;;5032948;28;21622;-84
2023/08/05 12:58:37;;;;;;;8.40;3.05;;;;;;;;;;5032818;28;20076;-83
2023/08/05 13:01:03;;;;;;;3.30;2.25;;;;;;;;;;5032387;28;20048;-84
2023/08/05 13:03:29;;;;;;;2.83;2.00;;;;;;;;;;5050601;28;20018;-83
2023/08/05 13:05:56;;;;;;;4.13;2.13;;;;;;;;;;5034197;28;20087;-83
2023/08/05 13:08:22;;;;;;;2.17;1.98;;;;;;;;;;5033872;28;20053;-83
2023/08/05 13:10:48;;;;;;;3.03;2.00;;;;;;;;;;5031356;28;20461;-82
2023/08/05 13:13:14;;;;;;;4.15;1.88;;;;;;;;;;5048774;28;20083;-84
2023/08/05 13:15:40;;;;;;;3.65;1.75;;;;;;;;;;5033079;28;20393;-84
2023/08/05 13:18:06;;;;;;;2.92;1.52;;;;;;;;;;5028955;28;20040;-85
2023/08/05 13:20:33;;;;;;;2.83;1.75;;;;;;;;;;5032888;28;20025;-85
2023/08/05 13:22:59;;;;;;;2.85;1.92;;;;;;;;;;5033844;28;20052;-84
2023/08/05 13:25:25;;;;;;;4.22;2.78;;;;;;;;;;5033331;28;20397;-81
2023/08/05 13:27:51;;;;;;;4.13;2.28;;;;;;;;;;5031575;28;20044;-81
2023/08/05 13:30:17;;;;;;;3.72;2.47;;;;;;;;;;5033493;28;20048;-81
2023/08/05 13:32:43;;;;;;;5.00;2.58;;;;;;;;;;5039287;28;20033;-81
2023/08/05 13:35:09;;;;;;;3.25;2.90;;;;;;;;;;5037416;28;20508;-79
2023/08/05 13:37:35;;;;;;;3.35;1.95;;;;;;;;;;5045697;28;20045;-76
2023/08/05 13:40:01;;;;;;;4.45;2.17;;;;;;;;;;5051895;28;20029;-77
2023/08/05 13:42:27;;;;;;;4.22;2.88;;;;;;;;;;5045242;28;20116;-77
2023/08/05 13:44:53;;;;;;;8.27;2.53;;;;;;;;;;5052163;28;20026;-77
2023/08/05 13:47:19;;;;;;;7.05;3.58;;;;;;;;;;5043879;28;20057;-77
2023/08/05 13:49:45;;;;;;;7.03;3.20;;;;;;;;;;5050439;28;20041;-78
2023/08/05 13:52:11;;;;;;;5.95;3.95;;;;;;;;;;5042640;28;20038;-80
2023/08/05 13:54:37;;;;;;;6.35;3.75;;;;;;;;;;5034889;28;20081;-80
2023/08/05 13:57:03;;;;;;;7.03;4.43;;;;;;;;;;5060213;28;20033;-81
2023/08/05 13:59:29;;;;;;;7.22;5.13;;;;;;;;;;5037931;28;20017;-81
2023/08/05 14:01:55;;;;;;;7.07;4.75;;;;;;;;;;5032361;28;20082;-83
2023/08/05 14:04:22;;;;;;;9.18;5.00;;;;;;;;;;5030355;28;20904;-83
2023/08/05 14:06:50;;;;;;;7.85;4.57;;;;;;;;;;5030938;28;20025;-82
2023/08/05 14:09:16;;;;;;;7.20;4.30;;;;;;;;;;5031179;28;20032;-81
2023/08/05 14:11:42;;;;;;;6.10;4.60;;;;;;;;;;5032492;28;20514;-84
2023/08/05 14:14:08;;;;;;;5.25;3.47;;;;;;;;;;5031208;28;20124;-85
2023/08/05 14:16:35;;;;;;;5.45;4.30;;;;;;;;;;5030655;28;20037;-84
2023/08/05 14:19:02;;;;;;;7.40;4.32;;;;;;;;;;5029413;28;20043;-83
2023/08/05 14:21:30;;;;;;;5.93;4.25;;;;;;;;;;5031119;28;20040;-84
2023/08/05 14:23:56;;;;;;;4.32;3.47;;;;;;;;;;5033828;28;20434;-84
2023/08/05 14:26:23;;;;;;;4.65;3.03;;;;;;;;;;5032283;28;20057;-84
2023/08/05 14:28:49;;;;;;;4.50;3.08;;;;;;;;;;5031349;28;20025;-84
2023/08/05 14:31:15;;;;;;;7.32;2.85;;;;;;;;;;5030275;28;20058;-84
2023/08/05 14:33:41;;;;;;;5.22;2.75;;;;;;;;;;5029541;28;20046;-84
2023/08/05 14:36:13;;;;;;;5.07;3.25;;;;;;;;;;5031643;28;20029;-86